sensor_id;sensor_type;location;lat;lon;timestamp;P1;durP1;ratioP1;P2;durP2;ratioP2
7027;SDS011;3555;53.248;10.336;2023-05-10T00:01:00;5.88;;;3.10;;
7027;SDS011;3555;53.248;10.336;2023-05-10T00:03:29;6.38;;;2.80;;
7027;SDS011;3555;53.248;10.336;2023-05-10T00:05:55;4.32;;;3.10;;
7027;SDS011;3555;53.248;10.336;2023-05-10T00:08:23;4.75;;;2.95;;
7027;SDS011;3555;53.248;10.336;2023-05-10T00:10:49;7.38;;;2.70;;
7027;SDS011;3555;53.248;10.336;2023-05-10T00:13:16;5.85;;;2.75;;
7027;SDS011;3555;53.248;10.336;2023-05-10T00:15:43;4.25;;;2.97;;
7027;SDS011;3555;53.248;10.336;2023-05-10T00:18:10;4.95;;;2.78;;
7027;SDS011;3555;53.248;10.336;2023-05-10T00:20:38;7.03;;;2.83;;
7027;SDS011;3555;53.248;10.336;2023-05-10T00:23:05;4.25;;;2.67;;
7027;SDS011;3555;53.248;10.336;2023-05-10T00:25:32;4.35;;;2.67;;
7027;SDS011;3555;53.248;10.336;2023-05-10T00:27:59;6.03;;;2.38;;
7027;SDS011;3555;53.248;10.336;2023-05-10T00:30:26;4.40;;;3.38;;
7027;SDS011;3555;53.248;10.336;2023-05-10T00:32:54;3.90;;;3.03;;
7027;SDS011;3555;53.248;10.336;2023-05-10T00:35:20;5.50;;;3.00;;
7027;SDS011;3555;53.248;10.336;2023-05-10T00:37:49;4.95;;;2.88;;
7027;SDS011;3555;53.248;10.336;2023-05-10T00:40:16;7.45;;;2.80;;
7027;SDS011;3555;53.248;10.336;2023-05-10T00:42:42;4.28;;;2.90;;
7027;SDS011;3555;53.248;10.336;2023-05-10T00:45:09;6.30;;;2.90;;
7027;SDS011;3555;53.248;10.336;2023-05-10T00:47:36;3.80;;;2.92;;
7027;SDS011;3555;53.248;10.336;2023-05-10T00:50:04;3.95;;;2.90;;
7027;SDS011;3555;53.248;10.336;2023-05-10T00:52:32;5.85;;;3.00;;
7027;SDS011;3555;53.248;10.336;2023-05-10T00:55:00;6.43;;;3.05;;
7027;SDS011;3555;53.248;10.336;2023-05-10T00:57:28;4.57;;;3.35;;
7027;SDS011;3555;53.248;10.336;2023-05-10T00:59:55;8.52;;;3.40;;
7027;SDS011;3555;53.248;10.336;2023-05-10T01:02:23;6.35;;;2.90;;
7027;SDS011;3555;53.248;10.336;2023-05-10T01:04:50;6.78;;;3.05;;
7027;SDS011;3555;53.248;10.336;2023-05-10T01:07:17;5.78;;;3.05;;
7027;SDS011;3555;53.248;10.336;2023-05-10T01:09:44;3.45;;;2.90;;
7027;SDS011;3555;53.248;10.336;2023-05-10T01:12:14;6.55;;;3.22;;
7027;SDS011;3555;53.248;10.336;2023-05-10T01:14:41;6.65;;;4.10;;
7027;SDS011;3555;53.248;10.336;2023-05-10T01:17:08;4.13;;;3.38;;
7027;SDS011;3555;53.248;10.336;2023-05-10T01:19:37;5.45;;;3.70;;
7027;SDS011;3555;53.248;10.336;2023-05-10T01:22:07;4.88;;;2.97;;
7027;SDS011;3555;53.248;10.336;2023-05-10T01:25:08;3.38;;;2.70;;
7027;SDS011;3555;53.248;10.336;2023-05-10T01:30:51;3.92;;;3.05;;
7027;SDS011;3555;53.248;10.336;2023-05-10T01:33:36;4.13;;;2.83;;
7027;SDS011;3555;53.248;10.336;2023-05-10T01:36:08;4.93;;;2.97;;
7027;SDS011;3555;53.248;10.336;2023-05-10T01:38:45;5.53;;;2.97;;
7027;SDS011;3555;53.248;10.336;2023-05-10T01:41:17;5.03;;;3.10;;
7027;SDS011;3555;53.248;10.336;2023-05-10T01:43:52;3.15;;;2.47;;
7027;SDS011;3555;53.248;10.336;2023-05-10T01:46:24;3.58;;;3.03;;
7027;SDS011;3555;53.248;10.336;2023-05-10T01:48:56;5.22;;;3.17;;
7027;SDS011;3555;53.248;10.336;2023-05-10T01:51:25;4.55;;;3.00;;
7027;SDS011;3555;53.248;10.336;2023-05-10T01:53:57;3.13;;;2.80;;
7027;SDS011;3555;53.248;10.336;2023-05-10T01:56:27;6.83;;;3.33;;
7027;SDS011;3555;53.248;10.336;2023-05-10T01:58:56;4.15;;;3.00;;
7027;SDS011;3555;53.248;10.336;2023-05-10T02:01:26;4.88;;;3.15;;
7027;SDS011;3555;53.248;10.336;2023-05-10T02:03:53;5.25;;;2.90;;
7027;SDS011;3555;53.248;10.336;2023-05-10T02:06:24;5.63;;;3.30;;
7027;SDS011;3555;53.248;10.336;2023-05-10T02:08:52;3.97;;;2.85;;
7027;SDS011;3555;53.248;10.336;2023-05-10T02:11:20;7.95;;;3.10;;
7027;SDS011;3555;53.248;10.336;2023-05-10T02:13:49;3.08;;;2.75;;
7027;SDS011;3555;53.248;10.336;2023-05-10T02:16:17;4.65;;;2.83;;
7027;SDS011;3555;53.248;10.336;2023-05-10T02:18:47;4.78;;;3.60;;
7027;SDS011;3555;53.248;10.336;2023-05-10T02:21:16;8.43;;;3.17;;
7027;SDS011;3555;53.248;10.336;2023-05-10T02:23:44;10.17;;;3.03;;
7027;SDS011;3555;53.248;10.336;2023-05-10T02:26:12;3.72;;;2.78;;
7027;SDS011;3555;53.248;10.336;2023-05-10T02:28:41;4.60;;;3.53;;
7027;SDS011;3555;53.248;10.336;2023-05-10T02:31:09;4.87;;;3.13;;
7027;SDS011;3555;53.248;10.336;2023-05-10T02:33:37;3.87;;;2.77;;
7027;SDS011;3555;53.248;10.336;2023-05-10T02:36:06;4.70;;;2.97;;
7027;SDS011;3555;53.248;10.336;2023-05-10T02:38:36;5.60;;;3.97;;
7027;SDS011;3555;53.248;10.336;2023-05-10T02:41:04;4.50;;;3.43;;
7027;SDS011;3555;53.248;10.336;2023-05-10T02:43:34;8.00;;;3.60;;
7027;SDS011;3555;53.248;10.336;2023-05-10T02:46:02;5.83;;;3.90;;
7027;SDS011;3555;53.248;10.336;2023-05-10T02:48:29;4.68;;;3.40;;
7027;SDS011;3555;53.248;10.336;2023-05-10T02:50:57;5.90;;;3.10;;
7027;SDS011;3555;53.248;10.336;2023-05-10T02:53:31;7.10;;;3.10;;
7027;SDS011;3555;53.248;10.336;2023-05-10T02:56:02;4.27;;;3.03;;
7027;SDS011;3555;53.248;10.336;2023-05-10T02:58:34;5.97;;;3.10;;
7027;SDS011;3555;53.248;10.336;2023-05-10T03:01:01;5.97;;;3.23;;
7027;SDS011;3555;53.248;10.336;2023-05-10T03:03:27;6.47;;;3.47;;
7027;SDS011;3555;53.248;10.336;2023-05-10T03:05:54;5.83;;;3.10;;
7027;SDS011;3555;53.248;10.336;2023-05-10T03:08:22;6.37;;;3.60;;
7027;SDS011;3555;53.248;10.336;2023-05-10T03:10:54;4.57;;;3.30;;
7027;SDS011;3555;53.248;10.336;2023-05-10T03:13:34;6.33;;;3.30;;
7027;SDS011;3555;53.248;10.336;2023-05-10T03:16:09;3.47;;;3.17;;
7027;SDS011;3555;53.248;10.336;2023-05-10T03:18:42;5.60;;;3.03;;
7027;SDS011;3555;53.248;10.336;2023-05-10T03:21:13;3.80;;;3.23;;
7027;SDS011;3555;53.248;10.336;2023-05-10T03:23:46;5.17;;;3.10;;
7027;SDS011;3555;53.248;10.336;2023-05-10T03:26:17;4.53;;;3.40;;
7027;SDS011;3555;53.248;10.336;2023-05-10T03:28:49;4.07;;;3.10;;
7027;SDS011;3555;53.248;10.336;2023-05-10T03:31:17;5.23;;;3.23;;
7027;SDS011;3555;53.248;10.336;2023-05-10T03:33:47;4.17;;;3.43;;
7027;SDS011;3555;53.248;10.336;2023-05-10T03:36:14;4.47;;;3.20;;
7027;SDS011;3555;53.248;10.336;2023-05-10T03:38:41;3.83;;;3.10;;
7027;SDS011;3555;53.248;10.336;2023-05-10T03:41:08;4.80;;;3.57;;
7027;SDS011;3555;53.248;10.336;2023-05-10T03:43:35;4.07;;;3.20;;
7027;SDS011;3555;53.248;10.336;2023-05-10T03:46:03;4.93;;;3.20;;
7027;SDS011;3555;53.248;10.336;2023-05-10T03:48:32;3.87;;;3.10;;
7027;SDS011;3555;53.248;10.336;2023-05-10T03:50:59;3.30;;;3.00;;
7027;SDS011;3555;53.248;10.336;2023-05-10T03:53:27;4.40;;;3.80;;
7027;SDS011;3555;53.248;10.336;2023-05-10T03:55:54;3.90;;;3.00;;
7027;SDS011;3555;53.248;10.336;2023-05-10T03:58:20;4.73;;;3.30;;
7027;SDS011;3555;53.248;10.336;2023-05-10T04:00:47;5.13;;;3.00;;
7027;SDS011;3555;53.248;10.336;2023-05-10T04:03:16;5.03;;;3.73;;
7027;SDS011;3555;53.248;10.336;2023-05-10T04:05:43;10.00;;;3.20;;
7027;SDS011;3555;53.248;10.336;2023-05-10T04:08:10;6.23;;;3.53;;
7027;SDS011;3555;53.248;10.336;2023-05-10T04:10:36;4.07;;;3.10;;
7027;SDS011;3555;53.248;10.336;2023-05-10T04:13:04;4.53;;;2.83;;
7027;SDS011;3555;53.248;10.336;2023-05-10T04:15:31;5.50;;;3.73;;
7027;SDS011;3555;53.248;10.336;2023-05-10T04:17:58;4.60;;;3.30;;
7027;SDS011;3555;53.248;10.336;2023-05-10T04:20:26;7.57;;;3.50;;
7027;SDS011;3555;53.248;10.336;2023-05-10T04:22:53;8.33;;;3.60;;
7027;SDS011;3555;53.248;10.336;2023-05-10T04:25:20;7.03;;;3.20;;
7027;SDS011;3555;53.248;10.336;2023-05-10T04:27:47;4.50;;;3.60;;
7027;SDS011;3555;53.248;10.336;2023-05-10T04:30:14;4.20;;;3.07;;
7027;SDS011;3555;53.248;10.336;2023-05-10T04:32:41;5.20;;;3.33;;
7027;SDS011;3555;53.248;10.336;2023-05-10T04:35:08;4.30;;;3.27;;
7027;SDS011;3555;53.248;10.336;2023-05-10T04:37:37;5.73;;;3.40;;
7027;SDS011;3555;53.248;10.336;2023-05-10T04:40:04;5.33;;;3.00;;
7027;SDS011;3555;53.248;10.336;2023-05-10T04:42:32;3.60;;;2.93;;
7027;SDS011;3555;53.248;10.336;2023-05-10T04:44:58;6.80;;;3.60;;
7027;SDS011;3555;53.248;10.336;2023-05-10T04:47:25;3.80;;;2.90;;
7027;SDS011;3555;53.248;10.336;2023-05-10T04:49:52;7.13;;;3.67;;
7027;SDS011;3555;53.248;10.336;2023-05-10T04:52:19;3.97;;;3.27;;
7027;SDS011;3555;53.248;10.336;2023-05-10T04:54:47;3.42;;;3.03;;
7027;SDS011;3555;53.248;10.336;2023-05-10T04:57:14;4.33;;;3.07;;
7027;SDS011;3555;53.248;10.336;2023-05-10T04:59:41;4.30;;;3.40;;
7027;SDS011;3555;53.248;10.336;2023-05-10T05:02:08;10.90;;;3.35;;
7027;SDS011;3555;53.248;10.336;2023-05-10T05:04:35;8.43;;;3.03;;
7027;SDS011;3555;53.248;10.336;2023-05-10T05:07:02;4.28;;;3.28;;
7027;SDS011;3555;53.248;10.336;2023-05-10T05:09:29;5.10;;;3.35;;
7027;SDS011;3555;53.248;10.336;2023-05-10T05:11:58;7.13;;;3.42;;
7027;SDS011;3555;53.248;10.336;2023-05-10T05:14:25;4.93;;;3.28;;
7027;SDS011;3555;53.248;10.336;2023-05-10T05:16:52;3.80;;;3.00;;
7027;SDS011;3555;53.248;10.336;2023-05-10T05:19:19;3.97;;;3.25;;
7027;SDS011;3555;53.248;10.336;2023-05-10T05:21:45;5.07;;;3.10;;
7027;SDS011;3555;53.248;10.336;2023-05-10T05:24:12;6.68;;;3.15;;
7027;SDS011;3555;53.248;10.336;2023-05-10T05:26:39;5.93;;;3.42;;
7027;SDS011;3555;53.248;10.336;2023-05-10T05:29:07;4.70;;;3.10;;
7027;SDS011;3555;53.248;10.336;2023-05-10T05:31:34;3.25;;;2.70;;
7027;SDS011;3555;53.248;10.336;2023-05-10T05:34:01;4.47;;;3.20;;
7027;SDS011;3555;53.248;10.336;2023-05-10T05:36:28;5.25;;;3.42;;
7027;SDS011;3555;53.248;10.336;2023-05-10T05:38:56;6.30;;;3.22;;
7027;SDS011;3555;53.248;10.336;2023-05-10T05:41:23;6.72;;;3.08;;
7027;SDS011;3555;53.248;10.336;2023-05-10T05:43:50;4.05;;;3.10;;
7027;SDS011;3555;53.248;10.336;2023-05-10T05:46:18;7.20;;;3.15;;
7027;SDS011;3555;53.248;10.336;2023-05-10T05:48:45;3.25;;;2.95;;
7027;SDS011;3555;53.248;10.336;2023-05-10T05:51:12;4.93;;;3.20;;
7027;SDS011;3555;53.248;10.336;2023-05-10T05:53:39;6.03;;;3.40;;
7027;SDS011;3555;53.248;10.336;2023-05-10T05:56:05;4.18;;;2.78;;
7027;SDS011;3555;53.248;10.336;2023-05-10T05:58:33;7.00;;;2.85;;
7027;SDS011;3555;53.248;10.336;2023-05-10T06:00:59;4.85;;;3.08;;
7027;SDS011;3555;53.248;10.336;2023-05-10T06:03:28;6.43;;;3.83;;
7027;SDS011;3555;53.248;10.336;2023-05-10T06:05:55;4.22;;;3.10;;
7027;SDS011;3555;53.248;10.336;2023-05-10T06:08:21;3.75;;;2.90;;
7027;SDS011;3555;53.248;10.336;2023-05-10T06:10:48;9.43;;;3.33;;
7027;SDS011;3555;53.248;10.336;2023-05-10T06:13:15;4.55;;;3.10;;
7027;SDS011;3555;53.248;10.336;2023-05-10T06:15:42;5.82;;;3.10;;
7027;SDS011;3555;53.248;10.336;2023-05-10T06:18:09;4.50;;;3.03;;
7027;SDS011;3555;53.248;10.336;2023-05-10T06:20:37;3.67;;;3.03;;
7027;SDS011;3555;53.248;10.336;2023-05-10T06:23:04;4.78;;;3.17;;
7027;SDS011;3555;53.248;10.336;2023-05-10T06:25:31;5.68;;;3.40;;
7027;SDS011;3555;53.248;10.336;2023-05-10T06:27:57;4.53;;;3.30;;
7027;SDS011;3555;53.248;10.336;2023-05-10T06:30:25;5.38;;;3.13;;
7027;SDS011;3555;53.248;10.336;2023-05-10T06:32:53;3.58;;;3.13;;
7027;SDS011;3555;53.248;10.336;2023-05-10T06:35:20;7.20;;;3.03;;
7027;SDS011;3555;53.248;10.336;2023-05-10T06:37:48;8.85;;;3.42;;
7027;SDS011;3555;53.248;10.336;2023-05-10T06:40:16;5.63;;;3.20;;
7027;SDS011;3555;53.248;10.336;2023-05-10T06:42:43;6.75;;;3.20;;
7027;SDS011;3555;53.248;10.336;2023-05-10T06:45:11;5.28;;;3.20;;
7027;SDS011;3555;53.248;10.336;2023-05-10T06:47:38;6.55;;;3.15;;
7027;SDS011;3555;53.248;10.336;2023-05-10T06:50:05;3.55;;;3.15;;
7027;SDS011;3555;53.248;10.336;2023-05-10T06:52:33;4.43;;;3.05;;
7027;SDS011;3555;53.248;10.336;2023-05-10T06:55:01;5.05;;;3.10;;
7027;SDS011;3555;53.248;10.336;2023-05-10T06:57:29;5.25;;;3.00;;
7027;SDS011;3555;53.248;10.336;2023-05-10T06:59:56;6.38;;;3.05;;
7027;SDS011;3555;53.248;10.336;2023-05-10T07:02:24;5.20;;;3.28;;
7027;SDS011;3555;53.248;10.336;2023-05-10T07:04:51;4.68;;;3.40;;
7027;SDS011;3555;53.248;10.336;2023-05-10T07:07:19;5.20;;;3.10;;
7027;SDS011;3555;53.248;10.336;2023-05-10T07:09:45;4.60;;;3.22;;
7027;SDS011;3555;53.248;10.336;2023-05-10T07:12:14;6.78;;;3.55;;
7027;SDS011;3555;53.248;10.336;2023-05-10T07:14:41;5.80;;;3.20;;
7027;SDS011;3555;53.248;10.336;2023-05-10T07:17:08;6.40;;;3.10;;
7027;SDS011;3555;53.248;10.336;2023-05-10T07:19:35;6.75;;;3.28;;
7027;SDS011;3555;53.248;10.336;2023-05-10T07:22:01;4.35;;;3.30;;
7027;SDS011;3555;53.248;10.336;2023-05-10T07:24:28;4.80;;;3.05;;
7027;SDS011;3555;53.248;10.336;2023-05-10T07:26:56;4.50;;;2.90;;
7027;SDS011;3555;53.248;10.336;2023-05-10T07:29:24;4.95;;;3.08;;
7027;SDS011;3555;53.248;10.336;2023-05-10T07:31:51;6.35;;;3.47;;
7027;SDS011;3555;53.248;10.336;2023-05-10T07:34:18;4.55;;;3.00;;
7027;SDS011;3555;53.248;10.336;2023-05-10T07:36:45;5.22;;;3.25;;
7027;SDS011;3555;53.248;10.336;2023-05-10T07:39:12;4.45;;;2.75;;
7027;SDS011;3555;53.248;10.336;2023-05-10T07:41:39;8.10;;;3.40;;
7027;SDS011;3555;53.248;10.336;2023-05-10T07:44:06;6.82;;;3.38;;
7027;SDS011;3555;53.248;10.336;2023-05-10T07:46:34;5.05;;;3.30;;
7027;SDS011;3555;53.248;10.336;2023-05-10T07:49:01;4.28;;;2.83;;
7027;SDS011;3555;53.248;10.336;2023-05-10T07:51:28;7.63;;;3.58;;
7027;SDS011;3555;53.248;10.336;2023-05-10T07:53:54;5.93;;;3.22;;
7027;SDS011;3555;53.248;10.336;2023-05-10T07:56:23;7.78;;;2.75;;
7027;SDS011;3555;53.248;10.336;2023-05-10T07:58:52;6.20;;;3.22;;
7027;SDS011;3555;53.248;10.336;2023-05-10T08:01:20;5.35;;;2.92;;
7027;SDS011;3555;53.248;10.336;2023-05-10T08:03:48;8.38;;;3.90;;
7027;SDS011;3555;53.248;10.336;2023-05-10T08:06:16;6.70;;;3.20;;
7027;SDS011;3555;53.248;10.336;2023-05-10T08:08:43;3.90;;;3.08;;
7027;SDS011;3555;53.248;10.336;2023-05-10T08:11:14;5.47;;;3.20;;
7027;SDS011;3555;53.248;10.336;2023-05-10T08:13:41;4.68;;;3.47;;
7027;SDS011;3555;53.248;10.336;2023-05-10T08:16:08;9.70;;;3.00;;
7027;SDS011;3555;53.248;10.336;2023-05-10T08:18:34;4.90;;;3.03;;
7027;SDS011;3555;53.248;10.336;2023-05-10T08:21:03;5.57;;;3.78;;
7027;SDS011;3555;53.248;10.336;2023-05-10T08:23:29;4.05;;;3.03;;
7027;SDS011;3555;53.248;10.336;2023-05-10T08:25:56;4.50;;;3.80;;
7027;SDS011;3555;53.248;10.336;2023-05-10T08:28:23;5.40;;;3.45;;
7027;SDS011;3555;53.248;10.336;2023-05-10T08:30:50;6.95;;;3.42;;
7027;SDS011;3555;53.248;10.336;2023-05-10T08:33:17;9.57;;;3.38;;
7027;SDS011;3555;53.248;10.336;2023-05-10T08:35:44;4.97;;;3.60;;
7027;SDS011;3555;53.248;10.336;2023-05-10T08:38:12;5.03;;;3.25;;
7027;SDS011;3555;53.248;10.336;2023-05-10T08:40:39;6.63;;;4.18;;
7027;SDS011;3555;53.248;10.336;2023-05-10T08:43:10;4.10;;;3.38;;
7027;SDS011;3555;53.248;10.336;2023-05-10T08:45:38;6.22;;;3.88;;
7027;SDS011;3555;53.248;10.336;2023-05-10T08:48:07;6.43;;;3.65;;
7027;SDS011;3555;53.248;10.336;2023-05-10T08:50:35;4.57;;;3.40;;
7027;SDS011;3555;53.248;10.336;2023-05-10T08:53:04;4.93;;;3.28;;
7027;SDS011;3555;53.248;10.336;2023-05-10T08:55:35;6.15;;;4.20;;
7027;SDS011;3555;53.248;10.336;2023-05-10T08:58:03;4.85;;;3.35;;
7027;SDS011;3555;53.248;10.336;2023-05-10T09:00:31;4.18;;;3.35;;
7027;SDS011;3555;53.248;10.336;2023-05-10T09:02:58;6.82;;;3.60;;
7027;SDS011;3555;53.248;10.336;2023-05-10T09:05:25;4.35;;;3.47;;
7027;SDS011;3555;53.248;10.336;2023-05-10T09:07:52;4.85;;;3.55;;
7027;SDS011;3555;53.248;10.336;2023-05-10T09:10:19;5.22;;;3.42;;
7027;SDS011;3555;53.248;10.336;2023-05-10T09:12:48;4.40;;;3.40;;
7027;SDS011;3555;53.248;10.336;2023-05-10T09:15:16;4.90;;;3.47;;
7027;SDS011;3555;53.248;10.336;2023-05-10T09:17:44;5.63;;;3.75;;
7027;SDS011;3555;53.248;10.336;2023-05-10T09:20:11;6.60;;;3.50;;
7027;SDS011;3555;53.248;10.336;2023-05-10T09:22:38;5.50;;;3.50;;
7027;SDS011;3555;53.248;10.336;2023-05-10T09:25:06;4.45;;;3.55;;
7027;SDS011;3555;53.248;10.336;2023-05-10T09:27:36;5.85;;;3.45;;
7027;SDS011;3555;53.248;10.336;2023-05-10T09:30:05;4.18;;;3.22;;
7027;SDS011;3555;53.248;10.336;2023-05-10T09:32:37;5.93;;;3.83;;
7027;SDS011;3555;53.248;10.336;2023-05-10T09:35:06;4.28;;;3.67;;
7027;SDS011;3555;53.248;10.336;2023-05-10T09:37:33;3.88;;;3.50;;
7027;SDS011;3555;53.248;10.336;2023-05-10T09:40:00;7.03;;;3.80;;
7027;SDS011;3555;53.248;10.336;2023-05-10T09:42:33;7.78;;;4.35;;
7027;SDS011;3555;53.248;10.336;2023-05-10T09:45:01;5.15;;;4.03;;
7027;SDS011;3555;53.248;10.336;2023-05-10T09:47:31;5.32;;;3.72;;
7027;SDS011;3555;53.248;10.336;2023-05-10T09:49:58;6.82;;;4.13;;
7027;SDS011;3555;53.248;10.336;2023-05-10T09:52:28;6.25;;;3.72;;
7027;SDS011;3555;53.248;10.336;2023-05-10T09:54:55;5.68;;;3.60;;
7027;SDS011;3555;53.248;10.336;2023-05-10T09:57:23;6.72;;;3.40;;
7027;SDS011;3555;53.248;10.336;2023-05-10T09:59:51;4.85;;;3.65;;
7027;SDS011;3555;53.248;10.336;2023-05-10T10:02:19;4.78;;;4.28;;
7027;SDS011;3555;53.248;10.336;2023-05-10T10:04:49;4.07;;;3.67;;
7027;SDS011;3555;53.248;10.336;2023-05-10T10:07:17;5.20;;;4.10;;
7027;SDS011;3555;53.248;10.336;2023-05-10T10:09:50;8.50;;;4.18;;
7027;SDS011;3555;53.248;10.336;2023-05-10T10:12:17;5.28;;;4.07;;
7027;SDS011;3555;53.248;10.336;2023-05-10T10:14:45;5.38;;;3.92;;
7027;SDS011;3555;53.248;10.336;2023-05-10T10:17:14;6.72;;;4.45;;
7027;SDS011;3555;53.248;10.336;2023-05-10T10:19:41;8.55;;;4.82;;
7027;SDS011;3555;53.248;10.336;2023-05-10T10:22:10;7.32;;;4.32;;
7027;SDS011;3555;53.248;10.336;2023-05-10T10:24:37;4.53;;;4.13;;
7027;SDS011;3555;53.248;10.336;2023-05-10T10:27:11;6.00;;;4.45;;
7027;SDS011;3555;53.248;10.336;2023-05-10T10:29:47;8.15;;;4.75;;
7027;SDS011;3555;53.248;10.336;2023-05-10T10:32:23;8.15;;;4.45;;
7027;SDS011;3555;53.248;10.336;2023-05-10T10:34:54;7.70;;;4.78;;
7027;SDS011;3555;53.248;10.336;2023-05-10T10:37:23;7.25;;;4.75;;
7027;SDS011;3555;53.248;10.336;2023-05-10T10:42:49;9.68;;;5.20;;
7027;SDS011;3555;53.248;10.336;2023-05-10T10:45:16;16.00;;;6.75;;
7027;SDS011;3555;53.248;10.336;2023-05-10T10:47:43;17.92;;;5.72;;
7027;SDS011;3555;53.248;10.336;2023-05-10T10:50:10;11.80;;;5.57;;
7027;SDS011;3555;53.248;10.336;2023-05-10T10:52:39;6.30;;;5.65;;
7027;SDS011;3555;53.248;10.336;2023-05-10T10:55:08;6.45;;;5.45;;
7027;SDS011;3555;53.248;10.336;2023-05-10T10:57:44;6.88;;;5.63;;
7027;SDS011;3555;53.248;10.336;2023-05-10T11:00:23;7.97;;;5.90;;
7027;SDS011;3555;53.248;10.336;2023-05-10T11:02:52;9.48;;;7.05;;
7027;SDS011;3555;53.248;10.336;2023-05-10T11:08:19;8.82;;;7.25;;
7027;SDS011;3555;53.248;10.336;2023-05-10T11:10:52;10.73;;;7.70;;
7027;SDS011;3555;53.248;10.336;2023-05-10T11:13:28;10.15;;;8.18;;
7027;SDS011;3555;53.248;10.336;2023-05-10T11:15:56;10.07;;;8.45;;
7027;SDS011;3555;53.248;10.336;2023-05-10T11:18:24;11.52;;;8.30;;
7027;SDS011;3555;53.248;10.336;2023-05-10T11:20:55;10.40;;;8.65;;
7027;SDS011;3555;53.248;10.336;2023-05-10T11:23:28;10.90;;;8.07;;
7027;SDS011;3555;53.248;10.336;2023-05-10T11:25:56;11.80;;;8.60;;
7027;SDS011;3555;53.248;10.336;2023-05-10T11:28:23;11.40;;;8.50;;
7027;SDS011;3555;53.248;10.336;2023-05-10T11:30:51;9.65;;;8.38;;
7027;SDS011;3555;53.248;10.336;2023-05-10T11:33:19;13.60;;;8.82;;
7027;SDS011;3555;53.248;10.336;2023-05-10T11:35:46;9.52;;;8.13;;
7027;SDS011;3555;53.248;10.336;2023-05-10T11:38:13;12.38;;;8.27;;
7027;SDS011;3555;53.248;10.336;2023-05-10T11:40:41;12.07;;;8.40;;
7027;SDS011;3555;53.248;10.336;2023-05-10T11:43:09;8.05;;;6.97;;
7027;SDS011;3555;53.248;10.336;2023-05-10T11:45:37;7.78;;;6.90;;
7027;SDS011;3555;53.248;10.336;2023-05-10T11:48:06;7.57;;;6.70;;
7027;SDS011;3555;53.248;10.336;2023-05-10T11:50:33;9.10;;;7.45;;
7027;SDS011;3555;53.248;10.336;2023-05-10T11:53:00;9.63;;;7.75;;
7027;SDS011;3555;53.248;10.336;2023-05-10T11:55:27;8.82;;;7.05;;
7027;SDS011;3555;53.248;10.336;2023-05-10T11:57:59;8.27;;;7.03;;
7027;SDS011;3555;53.248;10.336;2023-05-10T12:00:27;8.27;;;7.28;;
7027;SDS011;3555;53.248;10.336;2023-05-10T12:02:55;7.60;;;6.90;;
7027;SDS011;3555;53.248;10.336;2023-05-10T12:05:21;9.05;;;5.90;;
7027;SDS011;3555;53.248;10.336;2023-05-10T12:07:49;6.65;;;5.45;;
7027;SDS011;3555;53.248;10.336;2023-05-10T12:10:16;7.05;;;6.30;;
7027;SDS011;3555;53.248;10.336;2023-05-10T12:12:51;7.15;;;6.20;;
7027;SDS011;3555;53.248;10.336;2023-05-10T12:15:20;8.18;;;6.72;;
7027;SDS011;3555;53.248;10.336;2023-05-10T12:17:48;7.70;;;6.97;;
7027;SDS011;3555;53.248;10.336;2023-05-10T12:20:16;7.88;;;7.07;;
7027;SDS011;3555;53.248;10.336;2023-05-10T12:22:45;7.68;;;6.80;;
7027;SDS011;3555;53.248;10.336;2023-05-10T12:25:13;8.63;;;7.35;;
7027;SDS011;3555;53.248;10.336;2023-05-10T12:27:41;7.00;;;6.28;;
7027;SDS011;3555;53.248;10.336;2023-05-10T12:30:13;6.80;;;6.13;;
7027;SDS011;3555;53.248;10.336;2023-05-10T12:32:47;5.70;;;5.20;;
7027;SDS011;3555;53.248;10.336;2023-05-10T12:35:13;6.90;;;5.90;;
7027;SDS011;3555;53.248;10.336;2023-05-10T12:37:41;6.85;;;5.55;;
7027;SDS011;3555;53.248;10.336;2023-05-10T12:40:09;6.80;;;6.10;;
7027;SDS011;3555;53.248;10.336;2023-05-10T12:42:38;6.03;;;5.47;;
7027;SDS011;3555;53.248;10.336;2023-05-10T12:45:05;7.22;;;5.55;;
7027;SDS011;3555;53.248;10.336;2023-05-10T12:47:35;7.63;;;5.40;;
7027;SDS011;3555;53.248;10.336;2023-05-10T12:50:02;8.73;;;5.78;;
7027;SDS011;3555;53.248;10.336;2023-05-10T12:52:30;5.50;;;4.78;;
7027;SDS011;3555;53.248;10.336;2023-05-10T12:54:58;5.10;;;4.60;;
7027;SDS011;3555;53.248;10.336;2023-05-10T12:57:25;5.22;;;4.60;;
7027;SDS011;3555;53.248;10.336;2023-05-10T12:59:52;5.65;;;4.78;;
7027;SDS011;3555;53.248;10.336;2023-05-10T13:02:19;7.00;;;5.15;;
7027;SDS011;3555;53.248;10.336;2023-05-10T13:04:49;5.55;;;4.95;;
7027;SDS011;3555;53.248;10.336;2023-05-10T13:07:16;5.15;;;4.47;;
7027;SDS011;3555;53.248;10.336;2023-05-10T13:09:43;5.22;;;4.63;;
7027;SDS011;3555;53.248;10.336;2023-05-10T13:12:10;5.75;;;5.15;;
7027;SDS011;3555;53.248;10.336;2023-05-10T13:14:37;4.95;;;4.45;;
7027;SDS011;3555;53.248;10.336;2023-05-10T13:17:05;5.38;;;4.53;;
7027;SDS011;3555;53.248;10.336;2023-05-10T13:19:32;4.35;;;3.92;;
7027;SDS011;3555;53.248;10.336;2023-05-10T13:22:01;4.82;;;4.25;;
7027;SDS011;3555;53.248;10.336;2023-05-10T13:24:28;4.45;;;4.05;;
7027;SDS011;3555;53.248;10.336;2023-05-10T13:26:55;4.65;;;4.25;;
7027;SDS011;3555;53.248;10.336;2023-05-10T13:29:21;5.65;;;5.00;;
7027;SDS011;3555;53.248;10.336;2023-05-10T13:31:48;6.32;;;5.22;;
7027;SDS011;3555;53.248;10.336;2023-05-10T13:34:15;5.88;;;5.20;;
7027;SDS011;3555;53.248;10.336;2023-05-10T13:36:45;5.45;;;4.95;;
7027;SDS011;3555;53.248;10.336;2023-05-10T13:39:13;5.85;;;4.90;;
7027;SDS011;3555;53.248;10.336;2023-05-10T13:41:40;5.63;;;4.50;;
7027;SDS011;3555;53.248;10.336;2023-05-10T13:44:07;5.68;;;4.40;;
7027;SDS011;3555;53.248;10.336;2023-05-10T13:46:34;4.70;;;4.28;;
7027;SDS011;3555;53.248;10.336;2023-05-10T13:49:01;5.53;;;3.88;;
7027;SDS011;3555;53.248;10.336;2023-05-10T13:51:28;5.80;;;4.10;;
7027;SDS011;3555;53.248;10.336;2023-05-10T13:53:56;4.50;;;4.10;;
7027;SDS011;3555;53.248;10.336;2023-05-10T13:56:24;4.53;;;4.10;;
7027;SDS011;3555;53.248;10.336;2023-05-10T13:58:51;4.00;;;3.60;;
7027;SDS011;3555;53.248;10.336;2023-05-10T14:01:18;5.25;;;4.75;;
7027;SDS011;3555;53.248;10.336;2023-05-10T14:03:45;4.80;;;4.18;;
7027;SDS011;3555;53.248;10.336;2023-05-10T14:06:16;5.55;;;5.00;;
7027;SDS011;3555;53.248;10.336;2023-05-10T14:08:43;4.40;;;4.00;;
7027;SDS011;3555;53.248;10.336;2023-05-10T14:11:10;4.95;;;4.45;;
7027;SDS011;3555;53.248;10.336;2023-05-10T14:13:39;5.05;;;4.57;;
7027;SDS011;3555;53.248;10.336;2023-05-10T14:16:06;4.20;;;3.80;;
7027;SDS011;3555;53.248;10.336;2023-05-10T14:18:33;5.10;;;4.18;;
7027;SDS011;3555;53.248;10.336;2023-05-10T14:21:01;4.25;;;3.85;;
7027;SDS011;3555;53.248;10.336;2023-05-10T14:23:29;4.07;;;3.63;;
7027;SDS011;3555;53.248;10.336;2023-05-10T14:25:56;4.22;;;3.83;;
7027;SDS011;3555;53.248;10.336;2023-05-10T14:28:23;4.13;;;3.80;;
7027;SDS011;3555;53.248;10.336;2023-05-10T14:30:51;4.93;;;3.65;;
7027;SDS011;3555;53.248;10.336;2023-05-10T14:33:18;4.85;;;3.70;;
7027;SDS011;3555;53.248;10.336;2023-05-10T14:35:45;4.13;;;3.72;;
7027;SDS011;3555;53.248;10.336;2023-05-10T14:38:13;3.65;;;3.25;;
7027;SDS011;3555;53.248;10.336;2023-05-10T14:40:40;3.22;;;2.90;;
7027;SDS011;3555;53.248;10.336;2023-05-10T14:43:07;3.63;;;3.08;;
7027;SDS011;3555;53.248;10.336;2023-05-10T14:45:34;3.95;;;3.30;;
7027;SDS011;3555;53.248;10.336;2023-05-10T14:48:02;3.25;;;2.95;;
7027;SDS011;3555;53.248;10.336;2023-05-10T14:50:30;3.85;;;2.90;;
7027;SDS011;3555;53.248;10.336;2023-05-10T14:52:57;4.75;;;3.70;;
7027;SDS011;3555;53.248;10.336;2023-05-10T14:55:24;3.42;;;2.75;;
7027;SDS011;3555;53.248;10.336;2023-05-10T14:57:51;3.45;;;3.00;;
7027;SDS011;3555;53.248;10.336;2023-05-10T15:00:18;3.30;;;3.00;;
7027;SDS011;3555;53.248;10.336;2023-05-10T15:02:46;2.67;;;2.47;;
7027;SDS011;3555;53.248;10.336;2023-05-10T15:05:14;5.43;;;2.42;;
7027;SDS011;3555;53.248;10.336;2023-05-10T15:07:41;3.22;;;2.35;;
7027;SDS011;3555;53.248;10.336;2023-05-10T15:10:09;2.70;;;2.50;;
7027;SDS011;3555;53.248;10.336;2023-05-10T15:12:36;4.22;;;2.70;;
7027;SDS011;3555;53.248;10.336;2023-05-10T15:15:03;5.72;;;2.83;;